Time;durP1;ratioP1;P1;durP2;ratioP2;P2;SDS_P1;SDS_P2;PMS_P1;PMS_P2;Temp;Humidity;BMP_temperature;BMP_pressure;BME280_temperature;BME280_humidity;BME280_pressure;Samples;Min_cycle;Max_cycle;Signal;HPM_P1;HPM_P2
2022/12/11 00:00:46;;;;;;;36.08;18.17;;;;;;;;;;4984831;28;20046;-65
2022/12/11 00:03:12;;;;;;;21.23;10.07;;;;;;;;;;4984191;28;20048;-64
2022/12/11 00:05:39;;;;;;;37.80;18.23;;;;;;;;;;4985045;28;20116;-66
2022/12/11 00:08:04;;;;;;;34.28;15.73;;;;;;;;;;4983812;28;20085;-65
2022/12/11 00:10:29;;;;;;;33.25;15.65;;;;;;;;;;4984128;28;20105;-64
2022/12/11 00:12:55;;;;;;;34.10;16.48;;;;;;;;;;4984672;28;20585;-66
2022/12/11 00:15:20;;;;;;;34.38;16.27;;;;;;;;;;4984234;28;20137;-64
2022/12/11 00:17:46;;;;;;;37.03;17.60;;;;;;;;;;4984128;28;20404;-66
2022/12/11 00:20:11;;;;;;;30.88;17.30;;;;;;;;;;4983542;28;20046;-66
2022/12/11 00:22:37;;;;;;;18.73;8.90;;;;;;;;;;4984049;28;20100;-66
2022/12/11 00:25:02;;;;;;;31.20;16.10;;;;;;;;;;4984344;28;20490;-65
2022/12/11 00:27:28;;;;;;;29.42;15.75;;;;;;;;;;4983764;28;20050;-65
2022/12/11 00:29:54;;;;;;;28.67;15.50;;;;;;;;;;4983224;28;20050;-66
2022/12/11 00:32:19;;;;;;;23.60;13.10;;;;;;;;;;4983347;28;20054;-65
2022/12/11 00:34:45;;;;;;;32.28;15.55;;;;;;;;;;4984144;28;20046;-64
2022/12/11 00:37:10;;;;;;;33.75;16.77;;;;;;;;;;4983182;28;20046;-65
2022/12/11 00:39:38;;;;;;;26.80;13.43;;;;;;;;;;4983526;28;20098;-64
2022/12/11 00:42:07;;;;;;;28.42;14.07;;;;;;;;;;4982812;28;20141;-64
2022/12/11 00:44:33;;;;;;;31.98;15.52;;;;;;;;;;4983472;28;20057;-66
2022/12/11 00:46:58;;;;;;;26.00;14.95;;;;;;;;;;4983429;28;20411;-66
2022/12/11 00:49:24;;;;;;;32.40;15.55;;;;;;;;;;4984219;28;20046;-64
2022/12/11 00:51:49;;;;;;;32.28;15.77;;;;;;;;;;4983404;28;20046;-64
2022/12/11 00:54:15;;;;;;;30.20;17.58;;;;;;;;;;4983060;28;20061;-64
2022/12/11 00:56:40;;;;;;;32.33;16.65;;;;;;;;;;4983707;28;20487;-66
2022/12/11 00:59:06;;;;;;;17.42;10.55;;;;;;;;;;4983129;28;20963;-64
2022/12/11 01:01:32;;;;;;;34.03;16.95;;;;;;;;;;4981375;28;20149;-66
2022/12/11 01:03:57;;;;;;;33.15;15.63;;;;;;;;;;4982827;28;20133;-66
2022/12/11 01:06:24;;;;;;;35.78;17.00;;;;;;;;;;4983053;28;20042;-66
2022/12/11 01:11:34;;;;;;;30.95;14.75;;;;;;;;;;4983748;28;20053;-64
2022/12/11 01:14:00;;;;;;;29.05;14.23;;;;;;;;;;4982650;28;20042;-64
2022/12/11 01:16:25;;;;;;;25.20;13.05;;;;;;;;;;4982951;28;20042;-65
2022/12/11 01:18:51;;;;;;;19.65;9.85;;;;;;;;;;4983077;28;20129;-64
2022/12/11 01:21:16;;;;;;;26.40;13.55;;;;;;;;;;4983667;28;20046;-65
2022/12/11 01:23:41;;;;;;;21.08;11.75;;;;;;;;;;4983621;28;20050;-64
2022/12/11 01:26:14;;;;;;;19.67;11.48;;;;;;;;;;4982474;28;20143;-64
2022/12/11 01:28:40;;;;;;;30.75;14.32;;;;;;;;;;4979990;28;20038;-64
2022/12/11 01:31:13;;;;;;;23.83;12.15;;;;;;;;;;4979911;28;20046;-66
2022/12/11 01:33:39;;;;;;;17.80;10.50;;;;;;;;;;4981385;28;20053;-66
2022/12/11 01:36:08;;;;;;;28.88;15.25;;;;;;;;;;4981892;28;20038;-65
2022/12/11 01:38:34;;;;;;;25.17;13.95;;;;;;;;;;4980015;28;20050;-66
2022/12/11 01:40:59;;;;;;;30.85;15.50;;;;;;;;;;4980543;28;20046;-64
2022/12/11 01:43:24;;;;;;;27.98;13.75;;;;;;;;;;4983309;28;20053;-64
2022/12/11 01:45:50;;;;;;;30.70;15.45;;;;;;;;;;4982833;28;20418;-64
2022/12/11 01:48:21;;;;;;;30.13;15.15;;;;;;;;;;4981889;28;20116;-70
2022/12/11 01:50:48;;;;;;;30.95;15.65;;;;;;;;;;4982043;28;20445;-65
2022/12/11 01:53:22;;;;;;;26.42;14.27;;;;;;;;;;4982715;28;20156;-66
2022/12/11 01:55:49;;;;;;;25.50;13.70;;;;;;;;;;4982914;28;20066;-64
2022/12/11 01:58:16;;;;;;;28.20;14.57;;;;;;;;;;4982332;28;20423;-65
2022/12/11 02:00:41;;;;;;;24.67;13.15;;;;;;;;;;4980642;28;20070;-64
2022/12/11 02:03:07;;;;;;;26.98;13.80;;;;;;;;;;4981377;28;20567;-63
2022/12/11 02:05:32;;;;;;;28.90;16.25;;;;;;;;;;4982410;28;20566;-65
2022/12/11 02:08:01;;;;;;;26.25;14.07;;;;;;;;;;4982070;28;20050;-65
2022/12/11 02:11:05;;;;;;;26.23;14.70;;;;;;;;;;4982344;28;20435;-63
2022/12/11 02:13:53;;;;;;;17.48;9.30;;;;;;;;;;4981248;28;20054;-63
2022/12/11 02:16:28;;;;;;;27.13;14.77;;;;;;;;;;4982052;28;20049;-65
2022/12/11 02:19:35;;;;;;;23.45;10.35;;;;;;;;;;4979400;28;20042;-63
2022/12/11 02:22:07;;;;;;;21.60;10.70;;;;;;;;;;4975386;28;20058;-63
2022/12/11 02:24:57;;;;;;;24.38;13.52;;;;;;;;;;4980772;28;20046;-63
2022/12/11 02:27:32;;;;;;;16.83;9.25;;;;;;;;;;4981523;28;20042;-63
2022/12/11 02:30:00;;;;;;;19.48;10.52;;;;;;;;;;4982641;28;20503;-65
2022/12/11 02:32:32;;;;;;;26.40;14.35;;;;;;;;;;4981558;28;20423;-66
2022/12/11 02:35:05;;;;;;;26.10;13.73;;;;;;;;;;4981041;28;20085;-65
2022/12/11 02:37:34;;;;;;;26.25;13.63;;;;;;;;;;4981621;28;20136;-64
2022/12/11 02:40:04;;;;;;;27.77;14.02;;;;;;;;;;4981913;28;20050;-66
2022/12/11 02:42:32;;;;;;;27.85;14.15;;;;;;;;;;4981458;28;20054;-64
2022/12/11 02:45:00;;;;;;;24.15;13.13;;;;;;;;;;4981761;28;20085;-65
2022/12/11 02:47:28;;;;;;;27.20;13.88;;;;;;;;;;4980357;28;20042;-65
2022/12/11 02:49:57;;;;;;;26.33;13.80;;;;;;;;;;4981594;28;20050;-64
2022/12/11 02:52:25;;;;;;;28.60;13.32;;;;;;;;;;4980887;28;20042;-66
2022/12/11 02:54:55;;;;;;;27.70;13.77;;;;;;;;;;4997131;28;20500;-65
2022/12/11 02:57:30;;;;;;;22.63;13.20;;;;;;;;;;4980771;28;20034;-65
2022/12/11 02:59:55;;;;;;;22.20;10.95;;;;;;;;;;4997287;28;20422;-64
2022/12/11 03:02:21;;;;;;;20.80;11.30;;;;;;;;;;4982228;28;20056;-65
2022/12/11 03:04:47;;;;;;;23.52;11.80;;;;;;;;;;4981603;28;20056;-65
2022/12/11 03:07:16;;;;;;;18.90;10.63;;;;;;;;;;4980116;28;20046;-65
2022/12/11 03:09:44;;;;;;;25.10;13.60;;;;;;;;;;4981665;28;21254;-65
2022/12/11 03:12:24;;;;;;;23.95;12.57;;;;;;;;;;4981449;28;20076;-65
2022/12/11 03:14:50;;;;;;;23.70;12.15;;;;;;;;;;4964114;28;20100;-64
2022/12/11 03:17:27;;;;;;;16.10;9.77;;;;;;;;;;4980415;28;20462;-64
2022/12/11 03:20:10;;;;;;;22.80;11.32;;;;;;;;;;4978812;28;20058;-64
2022/12/11 03:22:46;;;;;;;;;;;;;;;;;;4980810;28;20058;-65
2022/12/11 03:25:18;;;;;;;21.83;10.75;;;;;;;;;;4981138;28;19926;-64
2022/12/11 03:27:53;;;;;;;23.33;12.45;;;;;;;;;;4979211;28;20117;-65
2022/12/11 03:30:22;;;;;;;13.30;7.90;;;;;;;;;;4979883;28;20050;-65
2022/12/11 03:32:58;;;;;;;18.00;8.98;;;;;;;;;;4981161;28;20057;-65
2022/12/11 03:35:29;;;;;;;21.23;12.07;;;;;;;;;;4980877;28;20050;-64
2022/12/11 03:37:59;;;;;;;13.38;6.78;;;;;;;;;;4979050;28;20061;-64
2022/12/11 03:40:26;;;;;;;17.65;10.48;;;;;;;;;;4979806;28;20149;-65
2022/12/11 03:42:55;;;;;;;21.02;11.90;;;;;;;;;;4980898;28;20101;-64
2022/12/11 03:45:21;;;;;;;17.67;9.23;;;;;;;;;;4979727;28;20427;-65
2022/12/11 03:47:48;;;;;;;18.15;9.40;;;;;;;;;;4995571;28;20046;-64
2022/12/11 03:50:16;;;;;;;6.25;4.72;;;;;;;;;;4980958;28;20123;-65
2022/12/11 03:52:45;;;;;;;18.25;9.73;;;;;;;;;;4978165;28;20517;-64
2022/12/11 03:55:13;;;;;;;15.35;8.32;;;;;;;;;;4980630;28;20050;-65
2022/12/11 03:57:39;;;;;;;14.85;9.10;;;;;;;;;;4979081;28;20050;-65
2022/12/11 04:00:08;;;;;;;11.35;7.88;;;;;;;;;;4980697;28;20048;-65
2022/12/11 04:02:37;;;;;;;12.88;8.07;;;;;;;;;;4979611;28;20042;-66
2022/12/11 04:05:03;;;;;;;20.00;10.85;;;;;;;;;;4980622;28;20295;-65
2022/12/11 04:07:30;;;;;;;16.80;9.63;;;;;;;;;;4980469;28;20205;-64
2022/12/11 04:09:55;;;;;;;12.93;7.93;;;;;;;;;;4980766;28;20426;-64
2022/12/11 04:12:21;;;;;;;11.07;6.95;;;;;;;;;;4995221;28;20050;-65
2022/12/11 04:15:01;;;;;;;17.75;9.98;;;;;;;;;;4977889;28;20129;-64
2022/12/11 04:25:41;;;;;;;12.80;7.75;;;;;;;;;;4979886;28;20662;-64
2022/12/11 04:28:07;;;;;;;8.55;4.75;;;;;;;;;;4978883;28;20128;-64
2022/12/11 04:30:32;;;;;;;13.73;7.72;;;;;;;;;;4979154;28;20082;-64
2022/12/11 04:32:58;;;;;;;17.70;10.73;;;;;;;;;;4980520;28;20128;-64
2022/12/11 04:35:23;;;;;;;14.05;8.30;;;;;;;;;;4980030;28;20237;-64
2022/12/11 04:37:50;;;;;;;17.88;9.88;;;;;;;;;;4980100;28;20504;-64
2022/12/11 04:40:18;;;;;;;17.00;9.77;;;;;;;;;;4980627;28;20077;-64
2022/12/11 04:42:43;;;;;;;17.75;9.68;;;;;;;;;;4978789;28;20097;-64
2022/12/11 04:45:09;;;;;;;12.10;7.43;;;;;;;;;;4982395;28;20096;-65
2022/12/11 04:47:37;;;;;;;14.65;8.57;;;;;;;;;;4983908;28;20058;-65
2022/12/11 04:50:04;;;;;;;15.52;8.38;;;;;;;;;;5000608;28;20058;-65
2022/12/11 04:52:29;;;;;;;12.27;7.45;;;;;;;;;;4984676;28;20046;-65
2022/12/11 04:54:55;;;;;;;16.13;8.98;;;;;;;;;;4985378;28;20121;-65
2022/12/11 04:57:20;;;;;;;18.70;10.30;;;;;;;;;;4983907;28;20076;-65
2022/12/11 04:59:46;;;;;;;14.98;8.52;;;;;;;;;;4985424;28;20104;-65
2022/12/11 05:02:12;;;;;;;13.00;7.75;;;;;;;;;;4984854;28;20058;-65
2022/12/11 05:04:38;;;;;;;15.00;8.13;;;;;;;;;;4984895;28;21077;-65
2022/12/11 05:07:03;;;;;;;16.38;8.88;;;;;;;;;;4984440;28;20959;-65
2022/12/11 05:09:29;;;;;;;12.10;7.30;;;;;;;;;;4984353;28;20053;-65
2022/12/11 05:11:55;;;;;;;20.10;10.18;;;;;;;;;;4985871;28;20061;-65
2022/12/11 05:14:20;;;;;;;17.25;10.02;;;;;;;;;;4984307;28;20042;-65
2022/12/11 05:16:46;;;;;;;15.88;9.90;;;;;;;;;;4985935;28;20735;-64
2022/12/11 05:19:11;;;;;;;15.32;9.45;;;;;;;;;;4982550;28;20100;-64
2022/12/11 05:21:37;;;;;;;16.52;9.55;;;;;;;;;;4983339;28;20073;-64
2022/12/11 05:24:03;;;;;;;13.30;7.70;;;;;;;;;;4983397;28;20483;-64
2022/12/11 05:26:28;;;;;;;15.05;9.10;;;;;;;;;;4982609;28;20104;-64
2022/12/11 05:28:54;;;;;;;16.00;9.10;;;;;;;;;;4983079;28;20490;-64
2022/12/11 05:31:22;;;;;;;9.90;6.75;;;;;;;;;;4982380;28;20088;-64
2022/12/11 05:33:49;;;;;;;14.43;9.23;;;;;;;;;;4982706;28;20053;-64
2022/12/11 05:36:33;;;;;;;14.45;7.65;;;;;;;;;;4983433;28;20057;-64
2022/12/11 05:38:59;;;;;;;14.35;8.32;;;;;;;;;;4979705;28;20050;-64
2022/12/11 05:41:28;;;;;;;16.17;9.05;;;;;;;;;;4982468;28;20046;-64
2022/12/11 05:43:54;;;;;;;18.70;9.10;;;;;;;;;;4983059;28;20325;-64
2022/12/11 05:46:22;;;;;;;16.98;9.10;;;;;;;;;;4982306;28;20946;-63
2022/12/11 05:48:52;;;;;;;14.85;8.55;;;;;;;;;;4982620;28;20042;-64
2022/12/11 05:51:18;;;;;;;14.82;8.05;;;;;;;;;;4982734;28;20054;-63
2022/12/11 05:53:47;;;;;;;18.92;8.65;;;;;;;;;;4982228;28;20054;-63
2022/12/11 05:56:18;;;;;;;5.53;4.30;;;;;;;;;;4971013;28;20054;-66
2022/12/11 05:58:44;;;;;;;13.85;8.60;;;;;;;;;;4981662;28;20185;-66
2022/12/11 06:01:19;;;;;;;14.98;8.32;;;;;;;;;;4982192;28;20118;-66
2022/12/11 06:03:44;;;;;;;15.10;8.70;;;;;;;;;;4981996;28;20078;-63
2022/12/11 06:06:10;;;;;;;18.73;9.60;;;;;;;;;;4982450;28;20092;-64
2022/12/11 06:08:35;;;;;;;19.33;9.80;;;;;;;;;;4981079;28;20050;-64
2022/12/11 06:11:01;;;;;;;14.35;8.88;;;;;;;;;;4982168;28;20672;-64
2022/12/11 06:13:27;;;;;;;8.90;6.05;;;;;;;;;;4982419;28;21111;-64
2022/12/11 06:15:52;;;;;;;14.90;8.45;;;;;;;;;;4980308;28;20046;-64
2022/12/11 06:18:18;;;;;;;13.95;7.90;;;;;;;;;;4995818;28;20069;-67
2022/12/11 06:20:44;;;;;;;16.48;8.20;;;;;;;;;;4980846;28;20116;-66
2022/12/11 06:23:09;;;;;;;16.40;9.30;;;;;;;;;;4982125;28;20058;-66
2022/12/11 06:25:38;;;;;;;13.32;8.88;;;;;;;;;;4981470;28;20046;-67
2022/12/11 06:28:03;;;;;;;14.90;8.30;;;;;;;;;;4981139;28;20060;-67
2022/12/11 06:30:29;;;;;;;16.52;9.70;;;;;;;;;;4979019;28;20053;-67
2022/12/11 06:32:54;;;;;;;13.63;8.25;;;;;;;;;;4978238;28;20065;-67
2022/12/11 06:35:20;;;;;;;15.63;8.60;;;;;;;;;;4981904;28;20057;-67
2022/12/11 06:37:46;;;;;;;13.20;8.25;;;;;;;;;;4978724;28;20173;-67
2022/12/11 06:40:11;;;;;;;18.17;9.23;;;;;;;;;;4979172;28;20776;-67
2022/12/11 06:42:37;;;;;;;19.48;9.52;;;;;;;;;;4978775;28;20065;-67
2022/12/11 06:45:06;;;;;;;15.07;9.27;;;;;;;;;;4994492;28;20053;-67
2022/12/11 06:47:32;;;;;;;15.27;8.13;;;;;;;;;;4979273;28;20074;-67
2022/12/11 06:49:57;;;;;;;14.48;9.02;;;;;;;;;;4978291;28;20050;-67
2022/12/11 06:52:26;;;;;;;16.75;9.75;;;;;;;;;;4977889;28;20038;-67
2022/12/11 06:54:51;;;;;;;15.27;8.85;;;;;;;;;;4980680;28;20133;-67
2022/12/11 06:57:18;;;;;;;16.45;8.95;;;;;;;;;;4979678;28;20141;-67
2022/12/11 06:59:44;;;;;;;15.07;9.60;;;;;;;;;;4979443;28;20046;-67
2022/12/11 07:02:13;;;;;;;18.17;9.48;;;;;;;;;;4980046;28;20038;-67
2022/12/11 07:04:39;;;;;;;15.95;9.60;;;;;;;;;;4963018;28;20050;-67
2022/12/11 07:07:05;;;;;;;15.40;8.95;;;;;;;;;;4978022;28;20042;-67
2022/12/11 07:09:31;;;;;;;18.10;9.95;;;;;;;;;;4977525;28;20137;-67
2022/12/11 07:11:57;;;;;;;18.20;9.95;;;;;;;;;;4974574;28;20434;-69
2022/12/11 07:14:22;;;;;;;14.40;8.32;;;;;;;;;;4976175;28;20042;-68
2022/12/11 07:16:48;;;;;;;18.85;10.18;;;;;;;;;;4962324;28;20143;-68
2022/12/11 07:19:13;;;;;;;14.60;8.93;;;;;;;;;;4976407;28;20491;-68
2022/12/11 07:21:39;;;;;;;16.50;9.18;;;;;;;;;;4977692;28;20443;-69
2022/12/11 07:24:05;;;;;;;17.20;9.50;;;;;;;;;;4978385;28;20030;-68
2022/12/11 07:26:31;;;;;;;16.75;9.25;;;;;;;;;;4976909;28;20054;-68
2022/12/11 07:28:57;;;;;;;17.40;9.45;;;;;;;;;;4978146;28;20099;-68
2022/12/11 07:31:24;;;;;;;18.23;10.10;;;;;;;;;;4977841;28;20073;-68
2022/12/11 07:33:58;;;;;;;16.00;9.18;;;;;;;;;;4978627;28;20050;-68
2022/12/11 07:36:24;;;;;;;14.73;8.65;;;;;;;;;;4978977;28;21005;-67
2022/12/11 07:38:50;;;;;;;14.23;8.55;;;;;;;;;;4977234;28;20116;-68
2022/12/11 07:41:16;;;;;;;17.80;8.90;;;;;;;;;;4978550;28;20046;-69
2022/12/11 07:43:51;;;;;;;14.55;8.73;;;;;;;;;;4976679;28;20145;-69
2022/12/11 07:46:19;;;;;;;15.38;8.88;;;;;;;;;;4978888;28;20050;-69
2022/12/11 07:48:46;;;;;;;16.52;9.02;;;;;;;;;;4978403;28;20058;-69
2022/12/11 07:51:13;;;;;;;14.73;8.70;;;;;;;;;;4980194;28;20495;-68
2022/12/11 07:53:40;;;;;;;14.90;9.23;;;;;;;;;;4978574;28;20519;-68
2022/12/11 07:56:06;;;;;;;15.43;8.95;;;;;;;;;;4977869;28;21007;-68
2022/12/11 07:58:31;;;;;;;16.90;9.07;;;;;;;;;;4976162;28;20074;-69
2022/12/11 08:00:57;;;;;;;19.15;9.93;;;;;;;;;;4977185;28;20430;-69
2022/12/11 08:03:23;;;;;;;14.18;8.52;;;;;;;;;;4977572;28;20049;-69
2022/12/11 08:05:50;;;;;;;15.00;8.10;;;;;;;;;;4973527;28;20046;-69
2022/12/11 08:08:17;;;;;;;15.05;8.48;;;;;;;;;;4974019;28;20474;-69
2022/12/11 08:10:42;;;;;;;12.77;8.73;;;;;;;;;;4975444;28;20051;-68
2022/12/11 08:13:08;;;;;;;13.45;8.57;;;;;;;;;;4975690;28;20049;-68
2022/12/11 08:15:35;;;;;;;13.70;8.80;;;;;;;;;;4977159;28;20062;-68
2022/12/11 08:18:00;;;;;;;11.75;7.32;;;;;;;;;;4978536;28;20046;-69
2022/12/11 08:20:26;;;;;;;12.00;7.72;;;;;;;;;;4980951;28;20068;-69
2022/12/11 08:22:51;;;;;;;12.98;8.10;;;;;;;;;;4984394;28;20050;-69
2022/12/11 08:25:16;;;;;;;14.20;8.68;;;;;;;;;;4984149;28;20973;-69
2022/12/11 08:27:42;;;;;;;14.48;8.52;;;;;;;;;;4983003;28;20058;-68
2022/12/11 08:30:08;;;;;;;14.25;8.45;;;;;;;;;;4998561;28;20054;-68
2022/12/11 08:32:34;;;;;;;14.13;8.65;;;;;;;;;;4983898;28;20104;-68
2022/12/11 08:35:00;;;;;;;17.10;9.02;;;;;;;;;;4983883;28;20050;-68
2022/12/11 08:37:25;;;;;;;17.00;8.68;;;;;;;;;;4983449;28;20058;-68
2022/12/11 08:39:51;;;;;;;15.00;9.13;;;;;;;;;;4983610;28;20057;-68
2022/12/11 08:42:16;;;;;;;14.38;8.57;;;;;;;;;;4982901;28;20526;-68
2022/12/11 08:44:41;;;;;;;14.23;8.45;;;;;;;;;;4983257;28;20057;-69
2022/12/11 08:47:08;;;;;;;19.85;10.70;;;;;;;;;;4984014;28;20054;-69
2022/12/11 08:49:34;;;;;;;19.50;10.20;;;;;;;;;;4981001;28;20050;-68
2022/12/11 08:52:02;;;;;;;17.33;10.57;;;;;;;;;;4983967;28;20080;-68
2022/12/11 08:54:27;;;;;;;18.63;9.68;;;;;;;;;;4973353;28;20046;-68
2022/12/11 08:56:52;;;;;;;16.45;10.50;;;;;;;;;;4983873;28;20112;-68
2022/12/11 08:59:18;;;;;;;17.67;10.68;;;;;;;;;;4981879;28;20049;-69
2022/12/11 09:01:43;;;;;;;18.38;10.20;;;;;;;;;;4983555;28;20471;-69
2022/12/11 09:04:09;;;;;;;17.77;9.85;;;;;;;;;;4983299;28;20042;-69
2022/12/11 09:06:34;;;;;;;17.30;10.05;;;;;;;;;;4983374;28;20050;-68
2022/12/11 09:09:00;;;;;;;17.90;9.85;;;;;;;;;;4982915;28;20472;-68
2022/12/11 09:11:29;;;;;;;17.40;9.48;;;;;;;;;;4982706;28;20053;-69
2022/12/11 09:13:56;;;;;;;16.45;9.63;;;;;;;;;;4990445;28;20046;-68
2022/12/11 09:16:24;;;;;;;18.30;10.90;;;;;;;;;;4979187;28;20689;-69
2022/12/11 09:18:52;;;;;;;17.60;9.95;;;;;;;;;;4979827;28;20609;-69
2022/12/11 09:21:20;;;;;;;15.48;9.05;;;;;;;;;;4978950;28;20065;-68
2022/12/11 09:23:46;;;;;;;14.05;8.30;;;;;;;;;;4980928;28;20046;-69
2022/12/11 09:26:14;;;;;;;17.25;10.30;;;;;;;;;;4980407;28;20060;-68
2022/12/11 09:28:40;;;;;;;17.30;9.70;;;;;;;;;;4980150;28;20065;-69
2022/12/11 09:31:18;;;;;;;16.90;9.68;;;;;;;;;;4980725;28;20513;-69
2022/12/11 09:33:45;;;;;;;16.83;9.48;;;;;;;;;;4980739;28;20116;-69
2022/12/11 09:36:11;;;;;;;16.85;9.90;;;;;;;;;;4981741;28;20053;-68
2022/12/11 09:38:36;;;;;;;16.63;8.73;;;;;;;;;;4980259;28;20050;-69
2022/12/11 09:41:19;;;;;;;14.88;8.57;;;;;;;;;;4980567;28;20074;-69
2022/12/11 09:43:47;;;;;;;16.88;8.95;;;;;;;;;;4979797;28;20050;-69
2022/12/11 09:46:14;;;;;;;17.70;9.65;;;;;;;;;;4981341;28;20513;-70
2022/12/11 09:48:49;;;;;;;14.20;8.13;;;;;;;;;;4980438;28;20456;-68
2022/12/11 09:51:28;;;;;;;17.20;10.38;;;;;;;;;;4981443;28;20050;-69
2022/12/11 09:53:58;;;;;;;20.13;10.90;;;;;;;;;;4980542;28;20046;-68
2022/12/11 09:56:28;;;;;;;18.33;10.20;;;;;;;;;;4979182;28;20396;-70
2022/12/11 09:59:00;;;;;;;14.73;8.50;;;;;;;;;;4979613;28;20051;-70
2022/12/11 10:01:50;;;;;;;15.73;9.30;;;;;;;;;;4979981;28;20074;-69
2022/12/11 10:04:18;;;;;;;12.75;7.90;;;;;;;;;;4980894;28;20058;-68
2022/12/11 10:06:54;;;;;;;18.45;9.85;;;;;;;;;;4979664;28;20054;-69
2022/12/11 10:09:47;;;;;;;17.15;9.95;;;;;;;;;;4980230;28;20161;-68
2022/12/11 10:12:41;;;;;;;21.35;10.95;;;;;;;;;;4980162;28;20065;-68
2022/12/11 10:15:34;;;;;;;18.27;10.98;;;;;;;;;;4977734;28;20090;-68
2022/12/11 10:18:00;;;;;;;19.50;9.73;;;;;;;;;;4977098;28;20068;-68
2022/12/11 10:20:41;;;;;;;17.58;10.68;;;;;;;;;;4979699;28;20042;-69
2022/12/11 10:23:12;;;;;;;17.52;10.27;;;;;;;;;;4980290;28;20077;-68
2022/12/11 10:25:47;;;;;;;21.35;11.13;;;;;;;;;;4979915;28;20148;-69
2022/12/11 10:28:15;;;;;;;11.30;8.00;;;;;;;;;;4979369;28;20050;-69
2022/12/11 10:30:49;;;;;;;17.50;10.20;;;;;;;;;;4978995;28;20709;-69
2022/12/11 10:33:40;;;;;;;16.88;10.68;;;;;;;;;;4980274;28;20519;-68
2022/12/11 10:36:07;;;;;;;16.92;10.13;;;;;;;;;;4979234;28;20158;-69
2022/12/11 10:38:39;;;;;;;11.38;7.60;;;;;;;;;;4977440;28;20502;-68
2022/12/11 10:41:08;;;;;;;;;;;;;;;;;;4978815;28;20057;-67
2022/12/11 10:43:40;;;;;;;17.27;8.45;;;;;;;;;;4979565;28;19921;-67
2022/12/11 10:46:18;;;;;;;12.40;8.10;;;;;;;;;;4978070;28;20074;-68
2022/12/11 10:48:46;;;;;;;17.95;10.52;;;;;;;;;;4979059;28;21118;-68
2022/12/11 10:51:12;;;;;;;17.13;10.27;;;;;;;;;;4979613;28;20070;-67
2022/12/11 10:53:39;;;;;;;14.90;8.45;;;;;;;;;;4980697;28;20563;-68
2022/12/11 10:56:05;;;;;;;14.88;9.70;;;;;;;;;;4978205;28;20503;-67
2022/12/11 10:58:32;;;;;;;11.90;5.43;;;;;;;;;;4979272;28;20054;-67
2022/12/11 11:01:03;;;;;;;15.85;8.80;;;;;;;;;;4971082;28;20045;-68
2022/12/11 11:03:29;;;;;;;13.23;7.85;;;;;;;;;;4977110;28;20054;-68
2022/12/11 11:06:13;;;;;;;11.10;6.95;;;;;;;;;;4979302;28;20057;-68
2022/12/11 11:08:42;;;;;;;10.30;6.15;;;;;;;;;;4978346;28;20148;-68
2022/12/11 11:11:32;;;;;;;13.93;8.43;;;;;;;;;;4978232;28;21299;-67
2022/12/11 11:14:04;;;;;;;10.02;7.32;;;;;;;;;;4979550;28;20054;-68
2022/12/11 11:16:30;;;;;;;8.25;5.53;;;;;;;;;;4979080;28;20093;-68
2022/12/11 11:18:57;;;;;;;10.68;6.72;;;;;;;;;;4979223;28;20085;-66
2022/12/11 11:21:24;;;;;;;11.15;7.18;;;;;;;;;;4979760;28;20050;-67
2022/12/11 11:23:51;;;;;;;10.63;7.25;;;;;;;;;;4979299;28;20737;-67
2022/12/11 11:26:19;;;;;;;11.70;6.45;;;;;;;;;;4979525;28;20089;-67
2022/12/11 11:28:55;;;;;;;7.38;5.80;;;;;;;;;;4978651;28;20105;-68
2022/12/11 11:31:30;;;;;;;11.65;7.75;;;;;;;;;;4979400;28;20593;-67
2022/12/11 11:34:05;;;;;;;12.85;8.00;;;;;;;;;;4978788;28;20046;-68
2022/12/11 11:36:32;;;;;;;13.23;8.82;;;;;;;;;;4973901;28;20050;-67
2022/12/11 11:39:03;;;;;;;12.98;7.88;;;;;;;;;;4977090;28;20046;-68
2022/12/11 11:41:39;;;;;;;6.72;4.88;;;;;;;;;;4977528;28;20042;-67
2022/12/11 11:44:10;;;;;;;30.33;18.00;;;;;;;;;;4977149;28;20074;-68
2022/12/11 11:46:43;;;;;;;17.00;10.00;;;;;;;;;;4975860;28;20503;-68
2022/12/11 11:49:43;;;;;;;30.50;16.98;;;;;;;;;;4976007;28;20050;-68
2022/12/11 11:52:28;;;;;;;16.83;9.68;;;;;;;;;;4941274;28;20126;-68
2022/12/11 11:55:08;;;;;;;10.18;7.13;;;;;;;;;;4962176;28;20061;-67
2022/12/11 11:57:44;;;;;;;16.42;10.73;;;;;;;;;;4968530;28;20046;-68
2022/12/11 12:00:20;;;;;;;10.25;6.55;;;;;;;;;;4980513;28;20922;-68
2022/12/11 12:02:53;;;;;;;9.50;5.93;;;;;;;;;;4980319;28;20124;-68
2022/12/11 12:05:25;;;;;;;9.88;6.40;;;;;;;;;;4981931;28;20046;-68
2022/12/11 12:08:24;;;;;;;12.15;7.15;;;;;;;;;;4981196;28;20046;-70
2022/12/11 12:11:04;;;;;;;7.47;5.43;;;;;;;;;;4981736;28;20712;-68
2022/12/11 12:13:51;;;;;;;4.65;3.72;;;;;;;;;;4996621;28;20050;-69
2022/12/11 12:16:29;;;;;;;14.40;9.00;;;;;;;;;;4980531;28;20525;-67
2022/12/11 12:19:15;;;;;;;15.30;9.52;;;;;;;;;;4977798;28;20069;-67
2022/12/11 12:21:45;;;;;;;17.20;9.77;;;;;;;;;;4981240;28;20096;-67
2022/12/11 12:24:46;;;;;;;14.23;8.90;;;;;;;;;;4981526;28;20054;-67
2022/12/11 12:27:30;;;;;;;13.88;8.38;;;;;;;;;;4952396;28;20507;-68
2022/12/11 12:30:10;;;;;;;15.82;9.40;;;;;;;;;;4979952;28;20496;-68
2022/12/11 12:32:45;;;;;;;15.50;9.18;;;;;;;;;;4979852;28;20062;-67
2022/12/11 12:35:23;;;;;;;11.75;7.78;;;;;;;;;;4981759;28;20438;-67
2022/12/11 12:38:01;;;;;;;10.27;7.35;;;;;;;;;;4982065;28;20050;-68
2022/12/11 12:40:35;;;;;;;10.98;7.57;;;;;;;;;;4980105;28;20061;-67
2022/12/11 12:43:20;;;;;;;7.97;6.00;;;;;;;;;;4979704;28;20057;-68
2022/12/11 12:46:04;;;;;;;12.45;7.50;;;;;;;;;;4976407;28;20105;-68
2022/12/11 12:48:29;;;;;;;16.35;8.80;;;;;;;;;;4979232;28;20507;-68
2022/12/11 12:50:55;;;;;;;13.77;8.27;;;;;;;;;;4981429;28;20061;-67
2022/12/11 12:53:28;;;;;;;12.18;7.82;;;;;;;;;;4981072;28;20927;-67
2022/12/11 12:55:55;;;;;;;9.00;5.72;;;;;;;;;;4982262;28;20104;-67
2022/12/11 12:58:29;;;;;;;7.50;4.95;;;;;;;;;;4979377;28;20050;-68
2022/12/11 13:01:07;;;;;;;7.90;6.03;;;;;;;;;;4963724;28;20042;-67
2022/12/11 13:03:36;;;;;;;16.73;7.93;;;;;;;;;;4979733;28;20046;-67
2022/12/11 13:06:06;;;;;;;12.13;8.02;;;;;;;;;;4980335;28;20523;-67
2022/12/11 13:08:39;;;;;;;18.02;9.10;;;;;;;;;;4979346;28;20038;-67
2022/12/11 13:11:10;;;;;;;12.93;8.43;;;;;;;;;;4996111;28;20038;-68
2022/12/11 13:13:37;;;;;;;12.87;8.90;;;;;;;;;;4980073;28;20066;-67
2022/12/11 13:16:24;;;;;;;13.82;8.05;;;;;;;;;;4980725;28;20054;-67
2022/12/11 13:18:51;;;;;;;15.05;8.77;;;;;;;;;;4979992;28;20111;-67
2022/12/11 13:21:37;;;;;;;8.77;5.97;;;;;;;;;;4980973;28;20065;-67
2022/12/11 13:24:20;;;;;;;16.17;7.80;;;;;;;;;;4981004;28;20579;-67
2022/12/11 13:26:47;;;;;;;11.35;7.68;;;;;;;;;;4981194;28;20090;-68
2022/12/11 13:29:38;;;;;;;11.48;7.53;;;;;;;;;;4979973;28;20046;-67
2022/12/11 13:32:10;;;;;;;16.83;8.40;;;;;;;;;;4980705;28;20059;-69
2022/12/11 13:34:39;;;;;;;8.50;6.45;;;;;;;;;;4980525;28;20054;-70
2022/12/11 13:37:06;;;;;;;10.15;6.85;;;;;;;;;;4981536;28;20129;-67
2022/12/11 13:39:36;;;;;;;14.05;7.45;;;;;;;;;;4980688;28;20039;-67
2022/12/11 13:42:06;;;;;;;10.98;7.93;;;;;;;;;;4981060;28;20523;-68
2022/12/11 13:44:38;;;;;;;10.73;6.72;;;;;;;;;;4980736;28;20101;-67
2022/12/11 13:47:10;;;;;;;9.45;6.47;;;;;;;;;;4980288;28;20077;-69
2022/12/11 13:49:40;;;;;;;11.77;6.93;;;;;;;;;;4979206;28;20060;-67
2022/12/11 13:52:06;;;;;;;12.38;7.85;;;;;;;;;;4979731;28;20116;-68
2022/12/11 13:54:37;;;;;;;10.52;6.50;;;;;;;;;;4980834;28;20065;-67
2022/12/11 13:57:16;;;;;;;12.27;8.02;;;;;;;;;;4981148;28;20092;-67
2022/12/11 13:59:48;;;;;;;9.13;6.25;;;;;;;;;;4979779;28;20117;-66
2022/12/11 14:02:28;;;;;;;9.65;6.45;;;;;;;;;;4979559;28;20454;-67
2022/12/11 14:05:01;;;;;;;9.57;6.28;;;;;;;;;;4977866;28;20069;-66
2022/12/11 14:07:32;;;;;;;12.80;7.82;;;;;;;;;;4980706;28;20053;-68
2022/12/11 14:10:05;;;;;;;12.90;7.27;;;;;;;;;;4979057;28;20050;-67
2022/12/11 14:12:31;;;;;;;10.70;6.85;;;;;;;;;;4980436;28;20285;-69
2022/12/11 14:15:00;;;;;;;11.90;7.20;;;;;;;;;;4981088;28;20065;-68
2022/12/11 14:17:31;;;;;;;11.50;6.55;;;;;;;;;;4979301;28;20112;-67
2022/12/11 14:19:59;;;;;;;15.80;7.65;;;;;;;;;;4980121;28;20133;-68
2022/12/11 14:22:26;;;;;;;8.88;6.28;;;;;;;;;;4979149;28;20892;-69
2022/12/11 14:24:57;;;;;;;13.02;6.93;;;;;;;;;;4981162;28;20563;-68
2022/12/11 14:27:25;;;;;;;7.97;5.35;;;;;;;;;;4979926;28;20061;-68
2022/12/11 14:29:50;;;;;;;10.70;6.35;;;;;;;;;;4979206;28;20451;-68
2022/12/11 14:32:39;;;;;;;9.73;6.03;;;;;;;;;;4979015;28;20050;-68
2022/12/11 14:35:16;;;;;;;8.18;5.28;;;;;;;;;;4974516;28;20054;-67
2022/12/11 14:37:43;;;;;;;12.43;6.57;;;;;;;;;;4978486;28;20808;-67
2022/12/11 14:40:16;;;;;;;10.38;6.40;;;;;;;;;;4978894;28;20050;-67
2022/12/11 14:42:53;;;;;;;10.43;6.03;;;;;;;;;;4977670;28;20054;-67
2022/12/11 14:45:31;;;;;;;8.18;5.75;;;;;;;;;;4979451;28;20050;-67
2022/12/11 14:47:58;;;;;;;7.70;5.50;;;;;;;;;;4979682;28;20046;-67
2022/12/11 14:50:24;;;;;;;9.40;6.32;;;;;;;;;;4976855;28;20058;-68
2022/12/11 14:52:57;;;;;;;9.75;6.93;;;;;;;;;;4966945;28;20100;-67
2022/12/11 14:55:30;;;;;;;9.80;6.10;;;;;;;;;;4991097;28;20042;-67